createdAt,value
2017-05-12T00:00:39.137Z,72.84
2017-05-12T00:01:39.113Z,73.07
2017-05-12T00:02:39.090Z,72.74
2017-05-12T00:03:39.078Z,72.45
2017-05-12T00:04:39.052Z,72.55
2017-05-12T00:05:39.033Z,72.59
2017-05-12T00:06:39.016Z,72.74
2017-05-12T00:07:38.998Z,72.74
2017-05-12T00:08:38.971Z,72.74
2017-05-12T00:09:39.171Z,72.64
2017-05-12T00:10:38.937Z,72.36
2017-05-12T00:11:38.913Z,72.27
2017-05-12T00:12:38.888Z,72.17
2017-05-12T00:13:38.872Z,71.98
2017-05-12T00:14:38.857Z,72.17
2017-05-12T00:15:38.833Z,71.92
2017-05-12T00:16:38.809Z,72.27
2017-05-12T00:17:38.794Z,72.59
2017-05-12T00:18:38.466Z,72.55
2017-05-12T00:19:38.764Z,71.98
2017-05-12T00:20:38.727Z,72.2
2017-05-12T00:21:38.711Z,72.3
2017-05-12T00:22:38.694Z,72.55
2017-05-12T00:23:38.674Z,71.78
2017-05-12T00:24:38.651Z,72.3
2017-05-12T00:25:38.628Z,71.98
2017-05-12T00:26:38.621Z,72.11
2017-05-12T00:27:38.647Z,71.88
2017-05-12T00:28:38.578Z,71.78
2017-05-12T00:29:38.555Z,71.92
2017-05-12T00:30:38.541Z,71.98
2017-05-12T00:31:38.513Z,71.78
2017-05-12T00:32:38.483Z,71.88
2017-05-12T00:33:38.479Z,72.78
2017-05-12T00:34:38.503Z,72.07
2017-05-12T00:35:38.446Z,72.17
2017-05-12T00:36:38.407Z,72.45
2017-05-12T00:37:38.388Z,72.27
2017-05-12T00:38:38.369Z,72.74
2017-05-12T00:39:38.051Z,72.55
2017-05-12T00:40:38.326Z,72.17
2017-05-12T00:41:38.316Z,72.74
2017-05-12T00:42:38.288Z,71.98
2017-05-12T00:43:38.263Z,72.07
2017-05-12T00:44:38.247Z,72.55
2017-05-12T00:45:38.222Z,72.07
2017-05-12T00:46:38.207Z,71.98
2017-05-12T00:47:38.188Z,72.36
2017-05-12T00:48:38.165Z,72.59
2017-05-12T00:49:38.146Z,72.36
2017-05-12T00:50:38.128Z,72.36
2017-05-12T00:51:38.105Z,72.27
2017-05-12T00:52:37.782Z,72.45
2017-05-12T00:53:38.064Z,72.94
2017-05-12T00:54:38.045Z,72.84
2017-05-12T00:55:38.024Z,72.55
2017-05-12T00:56:38.001Z,72.45
2017-05-12T00:57:37.677Z,72.84
2017-05-12T00:58:37.964Z,72.45
2017-05-12T00:59:37.945Z,72.45
2017-05-12T01:00:37.927Z,72.94
2017-05-12T01:01:37.897Z,72.64
2017-05-12T01:02:37.880Z,72.84
2017-05-12T01:03:37.562Z,72.84
2017-05-12T01:04:37.837Z,73.03
2017-05-12T01:05:37.823Z,73.22
2017-05-12T01:06:37.804Z,73.22
2017-05-12T01:07:37.777Z,73.03
2017-05-12T01:08:37.761Z,73.03
2017-05-12T01:09:37.747Z,73.13
2017-05-12T01:10:37.717Z,73.13
2017-05-12T01:11:37.703Z,73.03
2017-05-12T01:12:37.684Z,73.13
2017-05-12T01:13:37.664Z,72.94
2017-05-12T01:14:37.646Z,73.7
2017-05-12T01:15:37.627Z,73.7
2017-05-12T01:16:37.596Z,73.61
2017-05-12T01:17:37.578Z,73.7
2017-05-12T01:18:37.556Z,73.7
2017-05-12T01:19:37.547Z,73.8
2017-05-12T01:20:37.565Z,73.61
2017-05-12T01:21:37.497Z,73.61
2017-05-12T01:22:37.478Z,73.8
2017-05-12T01:23:37.459Z,73.61
2017-05-12T01:24:37.437Z,73.8
2017-05-12T01:25:37.423Z,73.51
2017-05-12T01:26:37.400Z,73.41
2017-05-12T01:27:37.379Z,73.41
2017-05-12T01:28:37.360Z,73.7
2017-05-12T01:29:37.341Z,73.8
2017-05-12T01:30:37.319Z,74.27
2017-05-12T01:31:37.297Z,73.8
2017-05-12T01:32:37.336Z,73.41
2017-05-12T01:33:37.258Z,73.61
2017-05-12T01:34:37.239Z,74.43
2017-05-12T01:35:37.218Z,74.24
2017-05-12T01:36:37.200Z,74.24
2017-05-12T01:37:36.877Z,75.01
2017-05-12T01:38:37.156Z,74.18
2017-05-12T01:39:37.133Z,74.62
2017-05-12T01:40:36.821Z,75.2
2017-05-12T01:41:37.098Z,75.2
2017-05-12T01:42:37.078Z,75.01
2017-05-12T01:43:37.055Z,74.72
2017-05-12T01:44:37.081Z,75.39
2017-05-12T01:45:37.017Z,74.91
2017-05-12T01:46:36.990Z,75.1
2017-05-12T01:47:36.971Z,74.91
2017-05-12T01:48:36.954Z,74.82
2017-05-12T01:49:36.631Z,75.2
2017-05-12T01:50:36.919Z,75.2
2017-05-12T01:51:36.898Z,75.1
2017-05-12T01:52:36.874Z,75.29
2017-05-12T01:53:36.849Z,75.68
2017-05-12T01:54:36.834Z,75.77
2017-05-12T01:55:36.813Z,75.2
2017-05-12T01:56:36.490Z,75.68
2017-05-12T01:57:36.773Z,75.68
2017-05-12T01:58:36.750Z,75.68
2017-05-12T01:59:36.727Z,75.77
2017-05-12T02:00:36.710Z,75.48
2017-05-12T02:01:36.692Z,76.06
2017-05-12T02:02:36.669Z,75.48
2017-05-12T02:03:36.650Z,75.48
2017-05-12T02:04:36.629Z,75.77
2017-05-12T02:05:36.607Z,76.15
2017-05-12T02:06:36.588Z,75.87
2017-05-12T02:07:36.568Z,75.96
2017-05-12T02:08:36.547Z,76.64
2017-05-12T02:09:36.526Z,77.5
2017-05-12T02:10:36.517Z,77.5
2017-05-12T02:11:36.484Z,76.25
2017-05-12T02:12:36.176Z,76.5
2017-05-12T02:13:36.441Z,76.31
2017-05-12T02:14:36.422Z,77.11
2017-05-12T02:15:36.401Z,77.21
2017-05-12T02:16:36.380Z,77.08
2017-05-12T02:17:36.372Z,76.98
2017-05-12T02:18:36.342Z,77.08
2017-05-12T02:19:36.316Z,77.02
2017-05-12T02:20:36.304Z,77.21
2017-05-12T02:21:36.295Z,77.65
2017-05-12T02:22:36.261Z,77.94
2017-05-12T02:23:36.248Z,77.84
2017-05-12T02:24:36.216Z,77.84
2017-05-12T02:25:36.201Z,77.36
2017-05-12T02:26:36.183Z,77.65
2017-05-12T02:27:36.164Z,78.42
2017-05-12T02:28:36.133Z,77.75
2017-05-12T02:29:36.111Z,78.22
2017-05-12T02:30:35.790Z,78.61
2017-05-12T02:31:36.081Z,78.42
2017-05-12T02:32:36.055Z,78.51
2017-05-12T02:33:36.025Z,78.42
2017-05-12T02:34:36.007Z,78.22
2017-05-12T02:35:35.984Z,78.22
2017-05-12T02:36:35.970Z,78.61
2017-05-12T02:37:35.638Z,77.84
2017-05-12T02:38:35.622Z,78.13
2017-05-12T02:39:35.903Z,78.61
2017-05-12T02:40:35.878Z,79.18
2017-05-12T02:41:35.863Z,78.8
2017-05-12T02:42:35.840Z,79.08
2017-05-12T02:43:35.836Z,79.08
2017-05-12T02:44:35.799Z,78.89
2017-05-12T02:45:35.777Z,79.28
2017-05-12T02:46:35.760Z,79.57
2017-05-12T02:47:35.741Z,79.28
2017-05-12T02:48:35.716Z,79.57
2017-05-12T02:49:35.691Z,79.75
2017-05-12T02:50:35.670Z,79.66
2017-05-12T02:51:35.657Z,79.95
2017-05-12T02:52:35.634Z,79.66
2017-05-12T02:53:35.616Z,79.66
2017-05-12T02:54:35.590Z,80.14
2017-05-12T02:55:35.580Z,80.58
2017-05-12T02:56:35.555Z,80.38
2017-05-12T02:57:35.537Z,80.77
2017-05-12T02:58:35.506Z,80.67
2017-05-12T02:59:35.491Z,80.58
2017-05-12T03:00:35.477Z,81.25
2017-05-12T03:01:35.447Z,81.15
2017-05-12T03:02:35.123Z,81.54
2017-05-12T03:03:35.408Z,81.73
2017-05-12T03:04:35.385Z,81.82
2017-05-12T03:05:35.366Z,82.11
2017-05-12T03:06:35.343Z,81.92
2017-05-12T03:07:35.321Z,82.4
2017-05-12T03:08:35.300Z,82.4
2017-05-12T03:09:35.328Z,82.3
2017-05-12T03:10:35.262Z,82.68
2017-05-12T03:11:35.242Z,82.87
2017-05-12T03:12:35.215Z,82.87
2017-05-12T03:13:35.198Z,82.78
2017-05-12T03:14:35.182Z,83.06
2017-05-12T03:15:35.155Z,83.16
2017-05-12T03:16:35.133Z,83.83
2017-05-12T03:17:35.109Z,83.54
2017-05-12T03:18:35.092Z,83.93
2017-05-12T03:19:35.079Z,83.54
2017-05-12T03:20:35.056Z,84.17
2017-05-12T03:21:35.030Z,84.08
2017-05-12T03:22:35.011Z,83.89
2017-05-12T03:23:34.986Z,84.46
2017-05-12T03:24:34.965Z,84.46
2017-05-12T03:25:34.953Z,84.27
2017-05-12T03:26:34.921Z,84.55
2017-05-12T03:27:34.907Z,85.03
2017-05-12T03:28:34.583Z,84.55
2017-05-12T03:29:34.864Z,84.94
2017-05-12T03:30:34.841Z,84.94
2017-05-12T03:31:34.819Z,85.32
2017-05-12T03:32:34.797Z,85.32
2017-05-12T03:33:34.773Z,85.32
2017-05-12T03:34:34.761Z,85.61
2017-05-12T03:35:34.731Z,85.22
2017-05-12T03:36:34.716Z,85.61
2017-05-12T03:37:34.693Z,85.61
2017-05-12T03:38:34.668Z,86.18
2017-05-12T03:39:34.659Z,86.28
2017-05-12T03:40:34.629Z,86.08
2017-05-12T03:41:34.608Z,85.8
2017-05-12T03:42:34.589Z,85.89
2017-05-12T03:43:34.566Z,85.99
2017-05-12T03:44:34.558Z,85.8
2017-05-12T03:45:34.525Z,85.99
2017-05-12T03:46:34.500Z,86.28
2017-05-12T03:47:34.479Z,86.23
2017-05-12T03:48:34.461Z,85.61
2017-05-12T03:49:34.441Z,85.99
2017-05-12T03:50:34.415Z,85.85
2017-05-12T03:51:34.400Z,86.14
2017-05-12T03:52:34.385Z,86.76
2017-05-12T03:53:34.363Z,86.57
2017-05-12T03:54:34.332Z,86.76
2017-05-12T03:55:34.313Z,86.66
2017-05-12T03:56:34.290Z,86.76
2017-05-12T03:57:34.527Z,86.66
2017-05-12T03:58:34.262Z,86.66
2017-05-12T03:59:34.222Z,86.8
2017-05-12T04:00:34.210Z,86.71
2017-05-12T04:01:34.189Z,86.76
2017-05-12T04:02:34.163Z,86.66
2017-05-12T04:03:34.146Z,86.47
2017-05-12T04:04:34.120Z,86.57
2017-05-12T04:05:34.099Z,86.47
2017-05-12T04:06:34.080Z,86.66
2017-05-12T04:07:34.059Z,86.57
2017-05-12T04:08:34.041Z,86.66
2017-05-12T04:09:33.715Z,87.04
2017-05-12T04:10:33.695Z,86.94
2017-05-12T04:11:33.673Z,87.04
2017-05-12T04:12:33.954Z,86.8
2017-05-12T04:13:33.935Z,86.85
2017-05-12T04:14:33.912Z,86.94
2017-05-12T04:15:33.892Z,87.04
2017-05-12T04:16:33.874Z,86.94
2017-05-12T04:17:33.843Z,87.52
2017-05-12T04:18:33.826Z,86.85
2017-05-12T04:19:33.805Z,86.76
2017-05-12T04:20:33.784Z,87.62
2017-05-12T04:21:33.765Z,87.23
2017-05-12T04:22:33.781Z,87.14
2017-05-12T04:23:33.722Z,87.14
2017-05-12T04:24:33.701Z,87.23
2017-05-12T04:25:33.680Z,87.14
2017-05-12T04:26:33.657Z,87.09
2017-05-12T04:27:33.635Z,87.14
2017-05-12T04:28:33.619Z,86.94
2017-05-12T04:29:33.592Z,87.23
2017-05-12T04:30:33.584Z,87.19
2017-05-12T04:31:33.558Z,87.23
2017-05-12T04:32:33.529Z,87.09
2017-05-12T04:33:33.510Z,87.43
2017-05-12T04:34:33.492Z,87.09
2017-05-12T04:35:33.466Z,87.09
2017-05-12T04:36:33.452Z,87.23
2017-05-12T04:37:33.429Z,87.38
2017-05-12T04:38:33.407Z,87.43
2017-05-12T04:39:33.380Z,87.04
2017-05-12T04:40:33.363Z,87.62
2017-05-12T04:41:33.340Z,87.52
2017-05-12T04:42:33.329Z,87.04
2017-05-12T04:43:33.305Z,87.04
2017-05-12T04:44:33.278Z,87.14
2017-05-12T04:45:33.261Z,87.04
2017-05-12T04:46:33.238Z,86.94
2017-05-12T04:47:33.212Z,86.85
2017-05-12T04:48:33.191Z,86.47
2017-05-12T04:49:33.173Z,86.76
2017-05-12T04:50:33.154Z,86.47
2017-05-12T04:51:33.135Z,86.66
2017-05-12T04:52:33.111Z,86.76
2017-05-12T04:53:33.098Z,86.57
2017-05-12T04:54:33.066Z,86.66
2017-05-12T04:55:33.048Z,86.66
2017-05-12T04:56:33.022Z,86.57
2017-05-12T04:57:33.006Z,86.76
2017-05-12T04:58:32.981Z,86.57
2017-05-12T04:59:32.966Z,86.47
2017-05-12T05:00:32.941Z,86.85
2017-05-12T05:01:32.917Z,86.76
2017-05-12T05:02:32.903Z,86.57
2017-05-12T05:03:32.893Z,86.66
2017-05-12T05:04:32.858Z,86.66
2017-05-12T05:05:32.833Z,86.66
2017-05-12T05:06:32.821Z,86.57
2017-05-12T05:07:32.795Z,86.76
2017-05-12T05:08:32.773Z,86.57
2017-05-12T05:09:32.758Z,86.47
2017-05-12T05:10:32.735Z,86.47
2017-05-12T05:11:32.712Z,86.66
2017-05-12T05:12:32.690Z,86.37
2017-05-12T05:13:32.667Z,86.94
2017-05-12T05:14:32.648Z,87.43
2017-05-12T05:15:32.628Z,87.33
2017-05-12T05:16:32.608Z,87.14
2017-05-12T05:17:32.583Z,87.33
2017-05-12T05:18:32.564Z,87.9
2017-05-12T05:19:32.545Z,87.9
2017-05-12T05:20:32.524Z,87.33
2017-05-12T05:21:32.498Z,87.62
2017-05-12T05:22:32.476Z,87.33
2017-05-12T05:23:32.452Z,87.71
2017-05-12T05:24:32.436Z,87.33
2017-05-12T05:25:32.414Z,88
2017-05-12T05:26:32.391Z,88.09
2017-05-12T05:27:32.370Z,88
2017-05-12T05:28:32.350Z,88.09
2017-05-12T05:29:32.326Z,88
2017-05-12T05:30:32.310Z,87.9
2017-05-12T05:31:32.294Z,87.43
2017-05-12T05:32:32.271Z,87.62
2017-05-12T05:33:32.240Z,87.81
2017-05-12T05:34:32.228Z,88
2017-05-12T05:35:32.203Z,88
2017-05-12T05:36:32.182Z,87.9
2017-05-12T05:37:32.162Z,88.09
2017-05-12T05:38:32.145Z,87.62
2017-05-12T05:39:32.120Z,87.52
2017-05-12T05:40:32.099Z,88.19
2017-05-12T05:41:32.076Z,88.38
2017-05-12T05:42:32.054Z,88.38
2017-05-12T05:43:32.042Z,88.19
2017-05-12T05:44:32.013Z,88.29
2017-05-12T05:45:31.992Z,88.29
2017-05-12T05:46:31.975Z,88.09
2017-05-12T05:47:31.951Z,88.48
2017-05-12T05:48:31.925Z,88.29
2017-05-12T05:49:31.914Z,88
2017-05-12T05:50:31.885Z,88
2017-05-12T05:51:31.863Z,87.62
2017-05-12T05:52:31.844Z,87.52
2017-05-12T05:53:31.824Z,88.38
2017-05-12T05:54:31.806Z,88.38
2017-05-12T05:55:31.479Z,88.29
2017-05-12T05:56:31.759Z,88.48
2017-05-12T05:57:31.739Z,87.52
2017-05-12T05:58:31.717Z,88
2017-05-12T05:59:31.698Z,88.29
2017-05-12T06:00:31.675Z,88.29
2017-05-12T06:01:31.658Z,88.38
2017-05-12T06:02:31.633Z,88.48
2017-05-12T06:03:31.305Z,88.29
2017-05-12T06:04:31.593Z,88.29
2017-05-12T06:05:31.574Z,88.19
2017-05-12T06:06:31.561Z,88.09
2017-05-12T06:07:31.226Z,88.29
2017-05-12T06:08:31.511Z,88.29
2017-05-12T06:09:31.485Z,88.48
2017-05-12T06:10:31.467Z,88.67
2017-05-12T06:11:31.447Z,88.29
2017-05-12T06:12:31.424Z,88.57
2017-05-12T06:13:31.407Z,88.67
2017-05-12T06:14:31.380Z,88.95
2017-05-12T06:15:31.059Z,88.86
2017-05-12T06:16:31.339Z,89.05
2017-05-12T06:17:31.322Z,88.48
2017-05-12T06:18:31.297Z,88.38
2017-05-12T06:19:31.281Z,89.53
2017-05-12T06:20:31.255Z,89.43
2017-05-12T06:21:31.239Z,89.05
2017-05-12T06:22:31.214Z,89.62
2017-05-12T06:23:31.189Z,89.53
2017-05-12T06:24:31.170Z,89.43
2017-05-12T06:25:31.147Z,89.72
2017-05-12T06:26:31.130Z,89.62
2017-05-12T06:27:31.105Z,89.91
2017-05-12T06:28:31.090Z,89.91
2017-05-12T06:29:31.083Z,89.91
2017-05-12T06:30:31.044Z,90.48
2017-05-12T06:31:31.025Z,90.2
2017-05-12T06:32:31.000Z,90.3
2017-05-12T06:33:30.979Z,90.48
2017-05-12T06:34:30.657Z,90.67
2017-05-12T06:35:30.938Z,90.77
2017-05-12T06:36:30.910Z,91.06
2017-05-12T06:37:30.891Z,91.35
2017-05-12T06:38:30.874Z,91.06
2017-05-12T06:39:30.899Z,90.87
2017-05-12T06:40:30.832Z,90.96
2017-05-12T06:41:30.841Z,90.96
2017-05-12T06:42:30.787Z,91.06
2017-05-12T06:43:30.767Z,91.53
2017-05-12T06:44:30.744Z,91.63
2017-05-12T06:45:30.724Z,92.3
2017-05-12T06:46:30.709Z,91.83
2017-05-12T06:47:30.684Z,91.97
2017-05-12T06:48:30.662Z,91.83
2017-05-12T06:49:30.640Z,92.21
2017-05-12T06:50:30.622Z,92.3
2017-05-12T06:51:30.603Z,91.73
2017-05-12T06:52:30.593Z,91.78
2017-05-12T06:53:30.568Z,92.3
2017-05-12T06:54:30.537Z,91.92
2017-05-12T06:55:30.524Z,92.11
2017-05-12T06:56:30.495Z,91.92
2017-05-12T06:57:30.477Z,92.3
2017-05-12T06:58:30.462Z,91.92
2017-05-12T06:59:30.435Z,92.3
2017-05-12T07:00:30.418Z,91.92
2017-05-12T07:01:30.389Z,92.4
2017-05-12T07:02:30.367Z,91.83
2017-05-12T07:03:30.346Z,92.21
2017-05-12T07:04:30.333Z,92.11
2017-05-12T07:05:30.301Z,92.3
2017-05-12T07:06:30.288Z,92.21
2017-05-12T07:07:30.262Z,92.3
2017-05-12T07:08:30.235Z,92.3
2017-05-12T07:09:30.219Z,92.11
2017-05-12T07:10:29.899Z,91.92
2017-05-12T07:11:30.178Z,91.73
2017-05-12T07:12:30.157Z,92.21
2017-05-12T07:13:30.136Z,92.3
2017-05-12T07:14:30.121Z,92.21
2017-05-12T07:15:30.092Z,92.21
2017-05-12T07:16:30.078Z,91.92
2017-05-12T07:17:30.052Z,92.21
2017-05-12T07:18:30.030Z,91.92
2017-05-12T07:19:30.015Z,91.92
2017-05-12T07:20:29.988Z,91.92
2017-05-12T07:21:29.971Z,91.92
2017-05-12T07:22:29.950Z,91.83
2017-05-12T07:23:29.930Z,92.11
2017-05-12T07:24:29.906Z,92.16
2017-05-12T07:25:29.879Z,91.39
2017-05-12T07:26:29.868Z,92.06
2017-05-12T07:27:29.851Z,91.97
2017-05-12T07:28:29.528Z,92.25
2017-05-12T07:29:29.802Z,92.35
2017-05-12T07:30:29.785Z,91.39
2017-05-12T07:31:29.462Z,91.49
2017-05-12T07:32:29.743Z,92.25
2017-05-12T07:33:29.741Z,92.35
2017-05-12T07:34:29.701Z,91.39
2017-05-12T07:35:29.681Z,92.16
2017-05-12T07:36:29.656Z,91.68
2017-05-12T07:37:29.334Z,92.35
2017-05-12T07:38:29.652Z,92.25
2017-05-12T07:39:29.589Z,92.16
2017-05-12T07:40:29.618Z,91.97
2017-05-12T07:41:29.552Z,92.35
2017-05-12T07:42:29.532Z,92.63
2017-05-12T07:43:29.511Z,92.92
2017-05-12T07:44:29.492Z,93.21
2017-05-12T07:45:29.473Z,92.49
2017-05-12T07:46:29.448Z,92.35
2017-05-12T07:47:29.430Z,92.73
2017-05-12T07:48:29.404Z,92.97
2017-05-12T07:49:29.387Z,93.12
2017-05-12T07:50:29.366Z,92.49
2017-05-12T07:51:29.342Z,93.26
2017-05-12T07:52:29.322Z,93.12
2017-05-12T07:53:29.302Z,93.02
2017-05-12T07:54:29.282Z,92.97
2017-05-12T07:55:29.262Z,93.88
2017-05-12T07:56:29.246Z,92.97
2017-05-12T07:57:29.221Z,93.5
2017-05-12T07:58:29.203Z,93.55
2017-05-12T07:59:29.183Z,93.64
2017-05-12T08:00:29.155Z,93.07
2017-05-12T08:01:29.136Z,93.26
2017-05-12T08:02:29.117Z,93.55
2017-05-12T08:03:29.099Z,93.16
2017-05-12T08:04:29.069Z,93.45
2017-05-12T08:05:29.056Z,93.07
2017-05-12T08:06:29.029Z,93.26
2017-05-12T08:07:29.014Z,93.45
2017-05-12T08:08:28.989Z,93.88
2017-05-12T08:09:28.968Z,93.64
2017-05-12T08:10:28.950Z,94.12
2017-05-12T08:11:28.927Z,93.98
2017-05-12T08:12:28.905Z,93.88
2017-05-12T08:13:28.889Z,93.98
2017-05-12T08:14:28.866Z,93.88
2017-05-12T08:15:29.147Z,93.79
2017-05-12T08:16:28.821Z,94.26
2017-05-12T08:17:28.801Z,93.98
2017-05-12T08:18:28.785Z,93.59
2017-05-12T08:19:28.764Z,93.4
2017-05-12T08:20:28.750Z,93.02
2017-05-12T08:21:28.721Z,93.74
2017-05-12T08:22:28.700Z,93.59
2017-05-12T08:23:28.681Z,93.45
2017-05-12T08:24:28.661Z,93.5
2017-05-12T08:25:28.641Z,93.4
2017-05-12T08:26:28.623Z,93.98
2017-05-12T08:27:28.599Z,93.83
2017-05-12T08:28:28.575Z,93.16
2017-05-12T08:29:28.555Z,93.45
2017-05-12T08:30:28.538Z,93.64
2017-05-12T08:31:28.515Z,93.83
2017-05-12T08:32:28.496Z,93.93
2017-05-12T08:33:28.471Z,93.74
2017-05-12T08:34:28.455Z,93.54
2017-05-12T08:35:28.434Z,94.12
2017-05-12T08:36:28.413Z,94.02
2017-05-12T08:37:28.394Z,94.69
2017-05-12T08:38:28.071Z,94.12
2017-05-12T08:39:28.351Z,94.5
2017-05-12T08:40:28.034Z,94.35
2017-05-12T08:41:28.314Z,93.69
2017-05-12T08:42:28.299Z,93.88
2017-05-12T08:43:28.276Z,93.49
2017-05-12T08:44:28.253Z,93.78
2017-05-12T08:45:28.232Z,93.78
2017-05-12T08:46:28.213Z,92.54
2017-05-12T08:47:28.196Z,93.21
2017-05-12T08:48:28.171Z,93.4
2017-05-12T08:49:28.158Z,93.78
2017-05-12T08:50:28.135Z,94.07
2017-05-12T08:51:28.112Z,94.35
2017-05-12T08:52:28.137Z,94.07
2017-05-12T08:53:28.075Z,93.88
2017-05-12T08:54:28.055Z,94.26
2017-05-12T08:55:28.034Z,94.35
2017-05-12T08:56:28.015Z,94.93
2017-05-12T08:57:27.996Z,94.64
2017-05-12T08:58:27.976Z,94.55
2017-05-12T08:59:27.955Z,94.64
2017-05-12T09:00:27.938Z,94.74
2017-05-12T09:01:27.917Z,95.03
2017-05-12T09:02:27.891Z,94.93
2017-05-12T09:03:27.876Z,94.74
2017-05-12T09:04:27.859Z,94.74
2017-05-12T09:05:27.837Z,94.74
2017-05-12T09:06:27.814Z,95.22
2017-05-12T09:07:27.799Z,95.12
2017-05-12T09:08:27.776Z,95.12
2017-05-12T09:09:27.763Z,95.41
2017-05-12T09:10:27.739Z,95.89
2017-05-12T09:11:27.715Z,95.6
2017-05-12T09:12:27.698Z,95.89
2017-05-12T09:13:27.682Z,95.7
2017-05-12T09:14:27.665Z,95.7
2017-05-12T09:15:27.637Z,95.51
2017-05-12T09:16:27.627Z,95.31
2017-05-12T09:17:27.599Z,95.31
2017-05-12T09:18:27.573Z,95.79
2017-05-12T09:19:27.561Z,95.79
2017-05-12T09:20:27.538Z,95.31
2017-05-12T09:21:27.519Z,95.65
2017-05-12T09:22:27.498Z,95.79
2017-05-12T09:23:27.477Z,96.75
2017-05-12T09:24:27.454Z,95.98
2017-05-12T09:25:27.438Z,95.89
2017-05-12T09:26:27.418Z,96.51
2017-05-12T09:27:27.097Z,96.47
2017-05-12T09:28:27.385Z,96.18
2017-05-12T09:29:27.361Z,96.56
2017-05-12T09:30:27.345Z,96.37
2017-05-12T09:31:27.318Z,96.37
2017-05-12T09:32:27.296Z,96.42
2017-05-12T09:33:27.277Z,96.7
2017-05-12T09:34:27.258Z,96.42
2017-05-12T09:35:27.238Z,96.13
2017-05-12T09:36:27.219Z,96.51
2017-05-12T09:37:27.210Z,96.42
2017-05-12T09:38:27.195Z,96.22
2017-05-12T09:39:27.175Z,96.08
2017-05-12T09:40:27.161Z,96.7
2017-05-12T09:41:27.380Z,96.75
2017-05-12T09:42:27.111Z,96.66
2017-05-12T09:43:27.088Z,96.27
2017-05-12T09:44:26.760Z,96.08
2017-05-12T09:45:27.041Z,95.94
2017-05-12T09:46:27.028Z,95.55
2017-05-12T09:47:27.012Z,95.84
2017-05-12T09:48:26.991Z,95.84
2017-05-12T09:49:26.970Z,95.65
2017-05-12T09:50:26.953Z,96.13
2017-05-12T09:51:26.931Z,95.21
2017-05-12T09:52:26.910Z,94.93
2017-05-12T09:53:26.889Z,94.45
2017-05-12T09:54:27.175Z,93.1
2017-05-12T09:55:26.860Z,93.87
2017-05-12T09:56:26.838Z,93.92
2017-05-12T09:57:26.820Z,94.49
2017-05-12T09:58:26.798Z,94.16
2017-05-12T09:59:26.780Z,94.35
2017-05-12T10:00:26.765Z,94.83
2017-05-12T10:01:26.749Z,94.54
2017-05-12T10:02:26.725Z,93.63
2017-05-12T10:03:26.711Z,93.92
2017-05-12T10:04:26.697Z,94.4
2017-05-12T10:05:26.669Z,94.21
2017-05-12T10:06:26.651Z,94.49
2017-05-12T10:07:26.644Z,93.82
2017-05-12T10:08:26.615Z,94.59
2017-05-12T10:09:26.602Z,94.98
2017-05-12T10:10:26.575Z,94.49
2017-05-12T10:11:26.556Z,94.79
2017-05-12T10:12:26.542Z,95.17
2017-05-12T10:13:26.519Z,95.07
2017-05-12T10:14:26.505Z,95.55
2017-05-12T10:15:26.179Z,94.45
2017-05-12T10:16:26.470Z,95.12
2017-05-12T10:17:26.448Z,94.88
2017-05-12T10:18:26.429Z,95.31
2017-05-12T10:19:26.404Z,95.94
2017-05-12T10:20:26.386Z,95.79
2017-05-12T10:21:26.368Z,95.7
2017-05-12T10:22:26.355Z,95.89
2017-05-12T10:23:26.331Z,95.94
2017-05-12T10:24:26.309Z,95.12
2017-05-12T10:25:26.288Z,95.89
2017-05-12T10:26:26.271Z,95.6
2017-05-12T10:27:26.256Z,96.03
2017-05-12T10:28:26.234Z,95.94
2017-05-12T10:29:26.213Z,95.84
2017-05-12T10:30:26.195Z,96.03
2017-05-12T10:31:26.175Z,95.75
2017-05-12T10:32:26.158Z,95.65
2017-05-12T10:33:26.141Z,96.13
2017-05-12T10:34:26.124Z,95.94
2017-05-12T10:35:26.099Z,94.4
2017-05-12T10:36:26.082Z,94.4
2017-05-12T10:37:26.068Z,95.26
2017-05-12T10:38:26.044Z,94.88
2017-05-12T10:39:25.719Z,94.49
2017-05-12T10:40:26.015Z,95.07
2017-05-12T10:41:25.990Z,94.64
2017-05-12T10:42:25.978Z,94.64
2017-05-12T10:43:25.967Z,93.87
2017-05-12T10:44:25.939Z,94.26
2017-05-12T10:45:25.928Z,93.2
2017-05-12T10:46:25.591Z,92.63
2017-05-12T10:47:25.579Z,93.49
2017-05-12T10:48:25.861Z,93.49
2017-05-12T10:49:25.841Z,93.1
2017-05-12T10:50:25.826Z,92.72
2017-05-12T10:51:25.801Z,92.72
2017-05-12T10:52:25.783Z,92.91
2017-05-12T10:53:25.768Z,92.72
2017-05-12T10:54:25.751Z,93.2
2017-05-12T10:55:25.732Z,93.05
2017-05-12T10:56:25.710Z,92.48
2017-05-12T10:57:25.695Z,93.05
2017-05-12T10:58:25.674Z,93.54
2017-05-12T10:59:25.655Z,93.25
2017-05-12T11:00:25.638Z,92.38
2017-05-12T11:01:25.620Z,92.38
2017-05-12T11:02:25.606Z,92.67
2017-05-12T11:03:25.588Z,91.47
2017-05-12T11:04:25.568Z,91.23
2017-05-12T11:05:25.557Z,91.42
2017-05-12T11:06:25.530Z,91.42
2017-05-12T11:07:25.517Z,92.24
2017-05-12T11:08:25.497Z,91.08
2017-05-12T11:09:25.175Z,91.56
2017-05-12T11:10:25.463Z,91.56
2017-05-12T11:11:25.446Z,91.42
2017-05-12T11:12:25.424Z,91.03
2017-05-12T11:13:25.404Z,90.55
2017-05-12T11:14:25.390Z,90.45
2017-05-12T11:15:25.372Z,90.55
2017-05-12T11:16:25.355Z,88.73
2017-05-12T11:17:25.341Z,87.38
2017-05-12T11:18:25.625Z,88.92
2017-05-12T11:19:25.304Z,89.11
2017-05-12T11:20:25.286Z,89.59
2017-05-12T11:21:25.306Z,89.01
2017-05-12T11:22:25.256Z,88.44
2017-05-12T11:23:25.240Z,86.61
2017-05-12T11:24:25.219Z,87.09
2017-05-12T11:25:25.201Z,86.13
2017-05-12T11:26:25.185Z,85.84
2017-05-12T11:27:25.167Z,86.61
2017-05-12T11:28:24.852Z,86.61
2017-05-12T11:29:25.130Z,86.71
2017-05-12T11:30:25.108Z,86.52
2017-05-12T11:31:25.095Z,86.61
2017-05-12T11:32:25.081Z,84.01
2017-05-12T11:33:25.063Z,84.06
2017-05-12T11:34:25.038Z,84.21
2017-05-12T11:35:25.023Z,85.02
2017-05-12T11:36:25.001Z,85.4
2017-05-12T11:37:24.985Z,85.02
2017-05-12T11:38:24.968Z,83.67
2017-05-12T11:39:24.658Z,84.44
2017-05-12T11:40:24.635Z,84.19
2017-05-12T11:41:24.919Z,82.85
2017-05-12T11:42:24.597Z,83.42
2017-05-12T11:43:24.888Z,84.29
2017-05-12T11:44:24.869Z,83.62
2017-05-12T11:45:24.849Z,83.23
2017-05-12T11:46:24.526Z,83.85
2017-05-12T11:47:24.825Z,82.65
2017-05-12T11:48:24.807Z,80.83
2017-05-12T11:49:24.789Z,81.02
2017-05-12T11:50:24.761Z,82.17
2017-05-12T11:51:24.751Z,82.65
2017-05-12T11:52:24.729Z,81.7
2017-05-12T11:53:24.717Z,81.83
2017-05-12T11:54:24.695Z,80.15
2017-05-12T11:55:24.675Z,82.08
2017-05-12T11:56:24.660Z,82.17
2017-05-12T11:57:24.651Z,82.65
2017-05-12T11:58:24.631Z,82.75
2017-05-12T11:59:24.615Z,82.56
2017-05-12T12:00:24.593Z,83.33
2017-05-12T12:01:24.570Z,82.98
2017-05-12T12:02:24.563Z,81.54
2017-05-12T12:03:24.567Z,80.19
2017-05-12T12:04:24.521Z,80
2017-05-12T12:05:24.503Z,80.73
2017-05-12T12:06:24.197Z,82.17
2017-05-12T12:07:24.473Z,81.88
2017-05-12T12:08:24.453Z,78.81
2017-05-12T12:09:24.437Z,80.83
2017-05-12T12:10:24.415Z,82.17
2017-05-12T12:11:24.399Z,82.65
2017-05-12T12:12:24.385Z,81.83
2017-05-12T12:13:24.363Z,82.5
2017-05-12T12:14:24.649Z,82.6
2017-05-12T12:15:24.329Z,80.96
2017-05-12T12:16:24.314Z,79.9
2017-05-12T12:17:24.300Z,80.77
2017-05-12T12:18:24.283Z,79.81
2017-05-12T12:19:24.261Z,79.23
2017-05-12T12:20:24.245Z,78.56
2017-05-12T12:21:24.224Z,78.75
2017-05-12T12:22:24.201Z,79.81
2017-05-12T12:23:24.190Z,79.13
2017-05-12T12:24:24.182Z,80
2017-05-12T12:25:24.159Z,80.96
2017-05-12T12:26:24.141Z,82.12
2017-05-12T12:27:23.819Z,81.73
2017-05-12T12:28:24.099Z,82.41
2017-05-12T12:29:23.809Z,82.79
2017-05-12T12:30:24.067Z,82.02
2017-05-12T12:31:24.058Z,80.81
2017-05-12T12:32:24.035Z,80.96
2017-05-12T12:33:24.025Z,80
2017-05-12T12:34:24.000Z,79.81
2017-05-12T12:35:23.983Z,79.9
2017-05-12T12:36:23.674Z,80.29
2017-05-12T12:37:23.940Z,81.06
2017-05-12T12:38:23.639Z,78.85
2017-05-12T12:39:23.934Z,77.69
2017-05-12T12:40:23.890Z,77.11
2017-05-12T12:41:23.880Z,78.46
2017-05-12T12:42:23.859Z,80.38
2017-05-12T12:43:23.846Z,80.96
2017-05-12T12:44:23.826Z,79.03
2017-05-12T12:45:23.803Z,80.19
2017-05-12T12:46:23.797Z,80.15
2017-05-12T12:47:23.776Z,80.15
2017-05-12T12:48:23.743Z,80.06
2017-05-12T12:49:23.738Z,81.02
2017-05-12T12:50:23.723Z,80.73
2017-05-12T12:51:23.692Z,81.4
2017-05-12T12:52:23.678Z,81.7
2017-05-12T12:53:23.663Z,81.5
2017-05-12T12:54:23.659Z,82.37
2017-05-12T12:55:23.621Z,82.27
2017-05-12T12:56:23.605Z,82.75